Weather at Damascus International Airport

Public forecast

Using degrees Celsius for public forecast. Weather courtesy of forecast.io.

Current aviation weather report (METAR) for Damascus International Airport

2024/05/18 09:00 (retrieved 38 minutes ago)

OSDI 180900Z 29010KT 9999 SCT030 BKN100 31/06 Q1018

Aviation forecast (TAF) for Damascus International Airport

2024/05/18 06:00 (retrieved 4 hours ago)

TAF OSDI 180400Z 1806/1912 22010KT 8000 FEW030 TEMPO 1806/1912 22010G25KT 8000 FEW030